Time;durP1;ratioP1;P1;durP2;ratioP2;P2;SDS_P1;SDS_P2;PMS_P1;PMS_P2;Temp;Humidity;BMP_temperature;BMP_pressure;BME280_temperature;BME280_humidity;BME280_pressure;Samples;Min_cycle;Max_cycle;Signal;HPM_P1;HPM_P2
2022/06/16 00:02:07;;;;;;;2.07;1.87;;;;;;;14.38;86.24;100761.13;5081020;28;20641;-72
2022/06/16 00:04:33;;;;;;;2.37;2.10;;;;;;;14.25;85.48;100755.53;5081382;28;20205;-70
2022/06/16 00:07:00;;;;;;;2.87;2.17;;;;;;;14.04;84.26;100762.47;5081931;28;20206;-71
2022/06/16 00:09:26;;;;;;;2.00;1.90;;;;;;;13.98;87.52;100755.69;5073203;28;20230;-71
2022/06/16 00:11:54;;;;;;;2.40;2.17;;;;;;;13.93;89.08;100757.63;5073415;28;20202;-72
2022/06/16 00:14:23;;;;;;;2.00;1.80;;;;;;;13.96;90.01;100759.28;5070406;28;20213;-72
2022/06/16 00:16:50;;;;;;;3.83;1.97;;;;;;;13.89;89.67;100750.78;5070576;28;20191;-72
2022/06/16 00:19:17;;;;;;;5.40;2.10;;;;;;;13.92;90.79;100744.59;5067573;28;20218;-72
2022/06/16 00:21:43;;;;;;;2.43;2.00;;;;;;;13.76;88.11;100747.78;5066872;28;20202;-71
2022/06/16 00:24:09;;;;;;;3.30;2.40;;;;;;;13.74;91.77;100744.38;5064922;28;20205;-72
2022/06/16 00:26:37;;;;;;;4.03;1.93;;;;;;;13.71;92.40;100752.34;5063771;28;20195;-72
2022/06/16 00:29:03;;;;;;;2.20;1.87;;;;;;;13.55;89.52;100751.19;5070186;28;20299;-71
2022/06/16 00:31:30;;;;;;;5.10;2.10;;;;;;;13.49;91.58;100752.28;5062094;28;20205;-72
2022/06/16 00:33:58;;;;;;;2.03;1.80;;;;;;;13.54;94.50;100747.69;5067633;28;20229;-72
2022/06/16 00:36:25;;;;;;;4.90;2.50;;;;;;;13.48;93.47;100747.09;5065190;28;20203;-72
2022/06/16 00:38:52;;;;;;;2.73;2.37;;;;;;;13.41;93.35;100760.41;5053174;28;20292;-71
2022/06/16 00:41:19;;;;;;;5.10;2.50;;;;;;;13.30;92.76;100753.78;5055974;28;20210;-72
2022/06/16 00:43:46;;;;;;;3.17;2.20;;;;;;;13.23;94.86;100756.63;5049055;28;20257;-72
2022/06/16 00:46:15;;;;;;;2.87;2.27;;;;;;;13.29;96.83;100752.09;5046136;28;20194;-71
2022/06/16 00:48:45;;;;;;;2.97;2.10;;;;;;;13.12;95.15;100750.06;5050894;28;20232;-72
2022/06/16 00:51:17;;;;;;;2.50;2.20;;;;;;;13.16;97.66;100746.44;5067998;28;20213;-72
2022/06/16 00:53:46;;;;;;;6.57;2.10;;;;;;;13.06;97.16;100748.50;5070959;28;20210;-72
2022/06/16 00:56:16;;;;;;;2.80;2.30;;;;;;;13.03;97.06;100740.75;5050050;28;20608;-72
2022/06/16 00:58:45;;;;;;;2.57;2.07;;;;;;;12.95;100.00;100740.19;5063403;28;20219;-72
2022/06/16 01:01:13;;;;;;;4.37;2.60;;;;;;;12.91;99.43;100738.56;5067744;28;20571;-72
2022/06/16 01:06:28;;;;;;;4.47;2.53;;;;;;;12.98;100.00;100740.94;5069319;28;20227;-72
2022/06/16 01:08:59;;;;;;;3.67;2.50;;;;;;;12.82;99.86;100740.59;5063871;28;20686;-72
2022/06/16 01:14:36;;;;;;;3.13;2.20;;;;;;;12.73;100.00;100742.66;5050231;28;20211;-73
2022/06/16 01:17:16;;;;;;;3.43;2.93;;;;;;;12.77;100.00;100737.28;5045567;28;20221;-71
2022/06/16 01:20:01;;;;;;;2.37;2.10;;;;;;;12.66;98.93;100735.03;5065320;28;20230;-72
2022/06/16 01:22:54;;;;;;;2.73;2.17;;;;;;;12.48;96.08;100744.31;5068826;28;20222;-72
2022/06/16 01:25:29;;;;;;;3.97;2.70;;;;;;;12.66;100.00;100735.03;5043221;28;20219;-72
2022/06/16 01:28:22;;;;;;;2.77;2.33;;;;;;;12.77;100.00;100729.44;5069716;28;20235;-72
2022/06/16 01:30:58;;;;;;;2.60;2.20;;;;;;;12.62;100.00;100728.16;5061748;28;20204;-71
2022/06/16 01:33:35;;;;;;;2.87;2.57;;;;;;;12.62;100.00;100727.31;5049292;28;20199;-72
2022/06/16 01:36:08;;;;;;;2.30;2.03;;;;;;;12.69;100.00;100721.81;5060206;28;20210;-71
2022/06/16 01:38:42;;;;;;;3.57;2.60;;;;;;;12.80;100.00;100711.00;5067777;28;20295;-72
2022/06/16 01:41:17;;;;;;;2.57;2.00;;;;;;;12.78;100.00;100706.75;5043925;28;20206;-72
2022/06/16 01:43:47;;;;;;;3.07;2.40;;;;;;;12.47;98.08;100711.22;5042255;28;20598;-72
2022/06/16 01:46:22;;;;;;;7.77;2.93;;;;;;;12.25;96.14;100718.91;5065978;28;20206;-72
2022/06/16 01:49:01;;;;;;;3.47;2.40;;;;;;;12.36;100.00;100713.31;5049440;28;20222;-72
2022/06/16 01:51:32;;;;;;;3.30;2.57;;;;;;;12.63;100.00;100698.50;5038995;28;20207;-72
2022/06/16 01:54:03;;;;;;;2.97;2.57;;;;;;;12.44;100.00;100705.25;5045989;28;20560;-72
2022/06/16 01:56:34;;;;;;;3.40;2.60;;;;;;;12.43;100.00;100701.75;5064236;28;20650;-72
2022/06/16 01:59:05;;;;;;;3.13;2.57;;;;;;;12.30;99.88;100709.16;5047578;28;20229;-72
2022/06/16 02:01:40;;;;;;;2.63;2.43;;;;;;;12.46;100.00;100706.91;5067778;28;20222;-72
2022/06/16 02:04:13;;;;;;;2.87;2.60;;;;;;;12.26;100.00;100718.00;5050852;28;20190;-72
2022/06/16 02:06:43;;;;;;;2.40;2.20;;;;;;;12.37;100.00;100709.81;5058316;28;20190;-72
2022/06/16 02:09:13;;;;;;;3.60;2.60;;;;;;;12.30;100.00;100714.38;5048213;28;20686;-72
2022/06/16 02:11:42;;;;;;;10.23;2.30;;;;;;;12.31;100.00;100712.59;5050410;28;20689;-72
2022/06/16 02:14:19;;;;;;;4.90;2.60;;;;;;;12.27;100.00;100701.41;5066584;28;20273;-71
2022/06/16 02:16:49;;;;;;;5.43;3.20;;;;;;;12.32;100.00;100699.50;5041817;28;20199;-72
2022/06/16 02:19:19;;;;;;;2.93;2.33;;;;;;;12.35;100.00;100702.91;5048743;28;20252;-72
2022/06/16 02:21:49;;;;;;;2.97;2.20;;;;;;;12.17;100.00;100713.06;5045251;28;20196;-72
2022/06/16 02:24:18;;;;;;;3.77;2.47;;;;;;;12.31;100.00;100708.25;5062515;28;20275;-72
2022/06/16 02:26:46;;;;;;;4.57;2.53;;;;;;;12.14;100.00;100713.16;5048413;28;20204;-72
2022/06/16 02:29:26;;;;;;;5.40;2.80;;;;;;;12.16;100.00;100715.72;5063691;28;20697;-71
2022/06/16 02:32:03;;;;;;;2.90;2.37;;;;;;;12.15;100.00;100717.47;5075133;28;20736;-72
2022/06/16 02:34:39;;;;;;;3.27;2.83;;;;;;;12.19;100.00;100710.38;5045530;28;20441;-72
2022/06/16 02:37:24;;;;;;;3.20;2.30;;;;;;;12.09;100.00;100710.69;5051873;28;20205;-72
2022/06/16 02:40:06;;;;;;;4.33;2.20;;;;;;;12.21;100.00;100700.75;5050595;28;20333;-72
2022/06/16 02:42:39;;;;;;;6.63;3.00;;;;;;;11.94;100.00;100695.47;5053924;28;20527;-72
2022/06/16 02:45:13;;;;;;;3.20;2.67;;;;;;;12.03;100.00;100699.56;5063529;28;20205;-72
2022/06/16 02:47:56;;;;;;;3.23;2.90;;;;;;;12.21;100.00;100693.78;5046194;28;20232;-72
2022/06/16 02:54:08;;;;;;;4.03;2.60;;;;;;;12.15;100.00;100701.78;5041701;23;20219;-72
2022/06/16 02:56:39;;;;;;;5.47;3.20;;;;;;;12.18;100.00;100711.31;5034577;28;20714;-73
2022/06/16 02:59:14;;;;;;;3.37;2.70;;;;;;;12.11;100.00;100708.03;5039075;28;20683;-73
2022/06/16 03:01:44;;;;;;;5.80;2.60;;;;;;;11.96;100.00;100698.91;5044784;28;20671;-73
2022/06/16 03:04:15;;;;;;;6.13;3.00;;;;;;;12.01;100.00;100699.59;5040100;28;20202;-73
2022/06/16 03:06:45;;;;;;;5.03;3.37;;;;;;;12.06;100.00;100694.25;5044084;28;20260;-72
2022/06/16 03:09:14;;;;;;;4.57;2.63;;;;;;;12.21;100.00;100691.16;5085983;23;20222;-73
2022/06/16 03:11:42;;;;;;;2.97;2.47;;;;;;;12.35;100.00;100682.88;5051188;28;20217;-74
2022/06/16 03:14:12;;;;;;;4.77;3.00;;;;;;;12.43;100.00;100699.16;5038039;28;20811;-74
2022/06/16 03:16:44;;;;;;;4.40;2.87;;;;;;;12.50;100.00;100691.97;5024923;28;20208;-73
2022/06/16 03:19:12;;;;;;;3.93;2.87;;;;;;;12.56;100.00;100701.34;5050009;28;20245;-74
2022/06/16 03:21:42;;;;;;;5.10;2.80;;;;;;;12.55;100.00;100694.44;5045123;28;20771;-74
2022/06/16 03:24:10;;;;;;;6.70;2.80;;;;;;;12.60;100.00;100693.38;5038703;28;20225;-74
2022/06/16 03:26:36;;;;;;;4.10;2.47;;;;;;;12.58;100.00;100694.34;5055384;28;20694;-73
2022/06/16 03:29:04;;;;;;;4.03;2.77;;;;;;;12.69;100.00;100682.59;5036756;28;20205;-74
2022/06/16 03:31:30;;;;;;;3.50;2.83;;;;;;;12.55;100.00;100687.44;5045116;28;20202;-74
2022/06/16 03:33:57;;;;;;;4.50;2.87;;;;;;;12.66;100.00;100695.78;5027343;28;20230;-74
2022/06/16 03:36:28;;;;;;;3.63;2.83;;;;;;;12.68;100.00;100700.94;5038851;28;20485;-74
2022/06/16 03:38:55;;;;;;;5.50;2.70;;;;;;;12.75;100.00;100702.47;5039096;28;20228;-74
2022/06/16 03:41:23;;;;;;;4.23;2.93;;;;;;;12.89;100.00;100704.59;5034653;28;20212;-73
2022/06/16 03:43:54;;;;;;;3.70;2.60;;;;;;;12.88;100.00;100711.59;5035989;28;20303;-74
2022/06/16 03:46:23;;;;;;;3.00;2.70;;;;;;;12.78;100.00;100711.97;5031390;28;20591;-74
2022/06/16 03:49:12;;;;;;;4.10;3.03;;;;;;;12.81;100.00;100707.50;5037899;28;20209;-74
2022/06/16 03:51:49;;;;;;;4.77;2.70;;;;;;;12.94;100.00;100709.69;5055784;28;20836;-74
2022/06/16 03:54:21;;;;;;;5.77;3.10;;;;;;;12.85;100.00;100714.31;5022785;28;20281;-74
2022/06/16 03:56:52;;;;;;;4.33;3.03;;;;;;;12.74;98.55;100715.59;5037401;28;20210;-74
2022/06/16 03:59:21;;;;;;;5.33;3.10;;;;;;;12.87;100.00;100706.41;5031871;28;20567;-74
2022/06/16 04:01:49;;;;;;;6.80;3.37;;;;;;;12.94;100.00;100709.69;5036749;28;20211;-74
2022/06/16 04:04:16;;;;;;;2.60;2.40;;;;;;;12.87;100.00;100709.91;5034690;28;20220;-75
2022/06/16 04:06:46;;;;;;;4.23;2.47;;;;;;;12.99;100.00;100715.63;5032390;28;20202;-74
2022/06/16 04:09:15;;;;;;;4.47;2.67;;;;;;;13.10;100.00;100713.47;5033064;28;20210;-74
2022/06/16 04:11:42;;;;;;;3.10;2.57;;;;;;;13.16;100.00;100723.72;5030502;28;20192;-74
2022/06/16 04:14:11;;;;;;;3.90;2.90;;;;;;;13.23;100.00;100717.38;5034481;28;20235;-74
2022/06/16 04:16:49;;;;;;;3.80;3.00;;;;;;;13.07;100.00;100716.22;5034757;28;20206;-74
2022/06/16 04:19:22;;;;;;;2.70;2.50;;;;;;;13.37;100.00;100710.81;5031881;28;20547;-74
2022/06/16 04:21:52;;;;;;;3.20;2.90;;;;;;;13.47;100.00;100727.03;5031208;28;20201;-74
2022/06/16 04:24:33;;;;;;;4.27;2.90;;;;;;;13.53;100.00;100726.84;5046942;28;20218;-74
2022/06/16 04:27:00;;;;;;;2.90;2.63;;;;;;;13.54;100.00;100729.38;5050910;28;20191;-73
2022/06/16 04:29:27;;;;;;;6.93;3.20;;;;;;;13.57;100.00;100731.88;5053485;28;20391;-73
2022/06/16 04:31:55;;;;;;;4.57;2.93;;;;;;;13.74;100.00;100741.75;5032662;28;20201;-74
2022/06/16 04:34:28;;;;;;;3.70;3.10;;;;;;;13.89;99.37;100727.19;5025885;28;20658;-74
2022/06/16 04:36:55;;;;;;;3.50;3.20;;;;;;;13.76;95.10;100742.53;5034366;28;20211;-74
2022/06/16 04:39:22;;;;;;;5.63;3.07;;;;;;;13.72;96.54;100743.56;5035370;28;20202;-74
2022/06/16 04:41:52;;;;;;;5.60;3.00;;;;;;;13.69;97.33;100734.97;5048922;28;20188;-74
2022/06/16 04:44:21;;;;;;;4.27;3.03;;;;;;;13.72;99.42;100734.84;5030356;28;20421;-74
2022/06/16 04:46:47;;;;;;;3.87;2.97;;;;;;;13.79;99.74;100728.44;5029506;28;20254;-74
2022/06/16 04:49:15;;;;;;;3.10;2.80;;;;;;;13.87;98.40;100736.88;5033577;28;20199;-74
2022/06/16 04:51:47;;;;;;;4.43;3.10;;;;;;;14.01;100.00;100742.44;5033617;28;20195;-73
2022/06/16 04:54:15;;;;;;;5.73;3.20;;;;;;;14.04;97.94;100738.88;5028146;28;20306;-73
2022/06/16 04:56:48;;;;;;;3.30;2.97;;;;;;;14.16;96.08;100738.41;5027571;28;20231;-73
2022/06/16 04:59:34;;;;;;;3.87;3.00;;;;;;;14.27;94.92;100729.25;5042707;28;20199;-74
2022/06/16 05:02:23;;;;;;;4.57;3.33;;;;;;;14.19;95.67;100733.03;5044341;28;20556;-74
2022/06/16 05:05:12;;;;;;;6.57;3.33;;;;;;;14.37;97.15;100735.81;5028589;28;20203;-74
2022/06/16 05:07:44;;;;;;;6.40;3.20;;;;;;;14.49;93.08;100743.22;5050616;28;20207;-74
2022/06/16 05:10:47;;;;;;;5.83;3.47;;;;;;;14.73;91.46;100745.78;5036086;28;20199;-74
2022/06/16 05:13:35;;;;;;;3.80;3.30;;;;;;;14.89;90.00;100749.44;5045637;28;20462;-74
2022/06/16 05:16:23;;;;;;;3.83;3.10;;;;;;;15.03;89.26;100756.75;5028269;28;20222;-74
2022/06/16 05:19:08;;;;;;;3.90;3.50;;;;;;;15.32;88.22;100757.28;5028847;28;20224;-74
2022/06/16 05:21:53;;;;;;;4.23;3.30;;;;;;;15.50;89.47;100758.25;5049113;28;20194;-74
2022/06/16 05:24:27;;;;;;;5.57;3.33;;;;;;;15.49;88.51;100760.00;5026132;28;20316;-74
2022/06/16 05:27:15;;;;;;;3.90;2.90;;;;;;;15.46;87.90;100765.41;5028897;28;20615;-74
2022/06/16 05:29:59;;;;;;;3.77;3.10;;;;;;;15.56;87.01;100759.72;5026226;28;20692;-74
2022/06/16 05:32:53;;;;;;;3.93;3.10;;;;;;;15.80;84.74;100758.66;5043902;28;20222;-74
2022/06/16 05:35:33;;;;;;;3.93;3.30;;;;;;;15.97;84.80;100757.88;5023245;28;20266;-74
2022/06/16 05:38:18;;;;;;;4.83;3.20;;;;;;;16.11;84.56;100748.47;5043816;28;20268;-74
2022/06/16 05:40:59;;;;;;;7.60;3.43;;;;;;;16.14;83.94;100749.19;5026024;28;20196;-75
2022/06/16 05:43:45;;;;;;;5.33;3.60;;;;;;;16.34;82.32;100763.16;5041602;28;20315;-74
2022/06/16 05:46:30;;;;;;;5.83;3.27;;;;;;;16.48;80.95;100760.75;5020812;28;20663;-74
2022/06/16 05:49:05;;;;;;;4.17;3.53;;;;;;;16.57;81.44;100776.09;5038733;28;20208;-74
2022/06/16 05:51:31;;;;;;;4.07;3.23;;;;;;;16.66;82.54;100759.81;5044815;28;20194;-74
2022/06/16 05:54:02;;;;;;;7.17;3.43;;;;;;;16.75;78.98;100771.69;5027703;28;20211;-74
2022/06/16 05:56:33;;;;;;;4.23;3.30;;;;;;;16.92;80.07;100777.91;5044583;28;20211;-74
2022/06/16 05:59:00;;;;;;;4.93;3.23;;;;;;;17.14;78.76;100788.22;5020638;28;20207;-74
2022/06/16 06:01:28;;;;;;;4.10;3.20;;;;;;;17.42;82.43;100780.59;5027550;28;20199;-74
2022/06/16 06:04:02;;;;;;;4.67;3.40;;;;;;;17.62;77.58;100793.66;5042897;28;20269;-74
2022/06/16 06:06:47;;;;;;;5.13;3.40;;;;;;;17.76;74.66;100796.41;5023399;28;20203;-74
2022/06/16 06:18:01;;;;;;;4.10;3.07;;;;;;;18.31;74.63;100798.72;5025387;28;20203;-74
2022/06/16 06:20:28;;;;;;;5.53;2.80;;;;;;;18.52;71.99;100801.94;5031564;28;20287;-74
2022/06/16 06:22:55;;;;;;;4.40;3.47;;;;;;;18.55;68.62;100812.31;5045540;28;20946;-75
2022/06/16 06:25:24;;;;;;;3.77;3.20;;;;;;;18.61;68.16;100810.25;5022928;28;20280;-75
2022/06/16 06:27:51;;;;;;;6.30;3.40;;;;;;;18.81;66.47;100815.25;5044455;28;20203;-74
2022/06/16 06:30:20;;;;;;;5.90;2.93;;;;;;;18.94;66.28;100819.88;5031840;28;20209;-74
2022/06/16 06:32:47;;;;;;;4.80;3.23;;;;;;;19.04;66.22;100818.41;5039682;28;20243;-74
2022/06/16 06:35:15;;;;;;;4.10;2.87;;;;;;;19.05;66.42;100820.06;5042705;28;20196;-74
2022/06/16 06:37:42;;;;;;;4.07;3.17;;;;;;;19.19;67.38;100819.28;5034484;28;20199;-75
2022/06/16 06:40:17;;;;;;;4.83;3.17;;;;;;;19.45;67.73;100821.22;5026752;28;20630;-75
2022/06/16 06:42:43;;;;;;;6.93;3.27;;;;;;;19.64;65.16;100828.88;5042247;28;20221;-75
2022/06/16 06:45:11;;;;;;;3.63;3.33;;;;;;;19.66;64.50;100834.06;5025539;28;20219;-74
2022/06/16 06:47:38;;;;;;;4.50;3.23;;;;;;;19.48;64.44;100815.75;5044862;28;20187;-75
2022/06/16 06:50:05;;;;;;;4.50;2.83;;;;;;;19.51;62.74;100812.06;5035586;28;20290;-75
2022/06/16 06:52:31;;;;;;;3.40;3.03;;;;;;;19.66;62.54;100808.50;5043307;28;20273;-75
2022/06/16 06:54:58;;;;;;;3.93;3.33;;;;;;;19.77;62.78;100810.50;5037209;28;20660;-74
2022/06/16 06:57:29;;;;;;;6.50;3.00;;;;;;;19.90;62.52;100821.19;5041318;28;20329;-74
2022/06/16 06:59:55;;;;;;;3.50;3.20;;;;;;;19.98;60.06;100828.63;5046996;28;20234;-74
2022/06/16 07:02:23;;;;;;;4.40;3.13;;;;;;;20.06;60.04;100831.66;5046198;28;20706;-74
2022/06/16 07:04:49;;;;;;;3.63;3.00;;;;;;;20.19;60.21;100837.00;5044756;28;20200;-75
2022/06/16 07:07:20;;;;;;;3.63;3.10;;;;;;;20.43;60.80;100830.16;5043982;28;20214;-75
2022/06/16 07:09:46;;;;;;;3.93;3.17;;;;;;;20.60;60.54;100830.88;5042739;28;20210;-74
2022/06/16 07:12:14;;;;;;;6.40;3.17;;;;;;;20.81;62.19;100826.00;5028422;28;20225;-75
2022/06/16 07:14:43;;;;;;;6.73;3.13;;;;;;;20.96;58.07;100832.91;5021030;28;20735;-75
2022/06/16 07:17:10;;;;;;;3.80;3.27;;;;;;;21.07;56.77;100834.00;5022011;28;20220;-74
2022/06/16 07:19:38;;;;;;;4.70;3.17;;;;;;;20.93;55.63;100835.81;5037607;28;20208;-74
2022/06/16 07:22:05;;;;;;;3.97;2.93;;;;;;;21.18;56.04;100824.41;5023404;28;20207;-74
2022/06/16 07:24:32;;;;;;;3.67;2.80;;;;;;;21.34;55.13;100823.34;5042455;28;20231;-75
2022/06/16 07:26:58;;;;;;;3.00;2.70;;;;;;;21.60;56.02;100813.66;5044055;28;20195;-74
2022/06/16 07:29:25;;;;;;;3.27;2.97;;;;;;;21.54;53.82;100819.34;5047812;28;20195;-75
2022/06/16 07:31:53;;;;;;;5.03;3.10;;;;;;;21.85;52.72;100822.53;5024608;28;20200;-75
2022/06/16 07:34:19;;;;;;;4.53;3.20;;;;;;;21.87;53.57;100820.63;5041979;28;20219;-75
2022/06/16 07:36:46;;;;;;;3.43;3.10;;;;;;;22.12;54.12;100825.03;5040498;28;20641;-75
2022/06/16 07:39:12;;;;;;;5.83;3.20;;;;;;;22.33;52.77;100822.66;5043379;28;20195;-75
2022/06/16 07:41:39;;;;;;;3.73;2.77;;;;;;;22.67;53.01;100822.84;5044098;28;20196;-75
2022/06/16 07:44:08;;;;;;;4.63;2.70;;;;;;;22.86;51.03;100831.13;5051429;28;20219;-75
2022/06/16 07:46:36;;;;;;;4.07;3.00;;;;;;;22.92;50.88;100836.97;5039767;28;20205;-75
2022/06/16 07:49:04;;;;;;;6.43;3.07;;;;;;;23.16;51.67;100834.31;5047152;28;20584;-74
2022/06/16 07:51:31;;;;;;;3.65;2.80;;;;;;;23.25;49.93;100831.81;5046559;28;20283;-75
2022/06/16 07:53:58;;;;;;;5.43;3.28;;;;;;;23.35;51.13;100833.75;5045959;28;20640;-75
2022/06/16 07:56:24;;;;;;;4.75;2.90;;;;;;;23.45;51.16;100826.75;5038774;28;20289;-75
2022/06/16 07:58:51;;;;;;;9.70;3.00;;;;;;;23.63;50.22;100835.97;5045027;28;20667;-75
2022/06/16 08:01:17;;;;;;;3.50;2.95;;;;;;;23.73;49.61;100832.59;5050625;28;20293;-75
2022/06/16 08:03:44;;;;;;;6.30;3.00;;;;;;;23.94;50.80;100820.28;5029404;28;20219;-75
2022/06/16 08:06:15;;;;;;;6.63;2.75;;;;;;;23.93;48.89;100836.38;5052897;28;20211;-75
2022/06/16 08:08:43;;;;;;;3.75;2.90;;;;;;;24.01;49.40;100844.63;5053033;28;20207;-75
2022/06/16 08:12:03;;;;;;;3.15;2.75;;;;;;;24.09;48.17;100842.16;5053977;28;20729;-75
2022/06/16 08:13:58;;;;;;;4.05;2.75;;;;;;;24.04;47.93;100836.34;5044607;28;20219;-75
2022/06/16 08:16:25;;;;;;;4.80;2.80;;;;;;;24.02;48.66;100843.63;5047541;28;20429;-75
2022/06/16 08:18:52;;;;;;;2.83;2.45;;;;;;;24.21;49.05;100845.69;5050852;28;20220;-75
2022/06/16 08:21:19;;;;;;;2.67;2.47;;;;;;;24.33;48.46;100843.84;5044128;28;20188;-75
2022/06/16 08:23:46;;;;;;;3.03;2.72;;;;;;;24.36;47.86;100847.09;5046311;28;20594;-75
2022/06/16 08:26:12;;;;;;;2.85;2.65;;;;;;;24.39;48.43;100854.00;5048735;28;20667;-75
2022/06/16 08:28:39;;;;;;;4.15;2.55;;;;;;;24.41;52.11;100848.53;5044758;28;20211;-75
2022/06/16 08:31:06;;;;;;;4.88;2.42;;;;;;;24.36;49.67;100857.78;5047788;28;20203;-75
2022/06/16 08:33:33;;;;;;;5.72;2.60;;;;;;;24.33;49.94;100852.69;5048640;28;20219;-75
2022/06/16 08:35:59;;;;;;;3.13;2.63;;;;;;;24.41;49.50;100854.72;5030348;28;20731;-75
2022/06/16 08:38:27;;;;;;;2.58;2.35;;;;;;;24.57;51.01;100862.34;5037226;28;20196;-75
2022/06/16 08:41:12;;;;;;;4.35;2.78;;;;;;;24.61;48.54;100871.81;5038139;28;20198;-75
2022/06/16 08:43:44;;;;;;;3.88;2.75;;;;;;;24.70;50.59;100867.53;5045845;28;20319;-75
2022/06/16 08:46:16;;;;;;;3.20;2.72;;;;;;;24.70;50.59;100872.88;5050725;28;20187;-75
2022/06/16 08:48:51;;;;;;;2.80;2.55;;;;;;;24.86;49.93;100877.78;5046193;28;20195;-75
2022/06/16 08:51:29;;;;;;;3.88;2.50;;;;;;;24.90;48.28;100874.72;5044329;28;20198;-75
2022/06/16 08:54:17;;;;;;;3.67;2.78;;;;;;;24.94;49.20;100875.31;5076338;23;20667;-72
2022/06/16 08:56:50;;;;;;;5.13;2.53;;;;;;;24.78;50.87;100877.56;5075787;28;20225;-71
2022/06/16 08:59:28;;;;;;;3.10;2.80;;;;;;;24.90;51.67;100879.22;5087168;28;20561;-72
2022/06/16 09:01:56;;;;;;;4.60;2.83;;;;;;;24.87;52.10;100884.78;5081773;28;20224;-72
2022/06/16 09:04:27;;;;;;;2.95;2.63;;;;;;;24.91;51.12;100884.41;5079179;28;20237;-72
2022/06/16 09:07:01;;;;;;;3.35;3.05;;;;;;;24.94;50.71;100894.84;5087420;28;20208;-71
2022/06/16 09:12:36;;;;;;;4.72;3.03;;;;;;;25.24;50.20;100890.59;5077870;28;20275;-72
2022/06/16 09:15:13;;;;;;;3.67;2.90;;;;;;;25.32;50.73;100879.28;5084169;28;20224;-72
2022/06/16 09:17:52;;;;;;;3.50;3.20;;;;;;;25.48;49.87;100893.03;5078934;28;20674;-73
2022/06/16 09:20:27;;;;;;;3.90;2.78;;;;;;;25.46;49.12;100892.31;5080748;28;20194;-73
2022/06/16 09:23:09;;;;;;;2.92;2.67;;;;;;;25.57;49.58;100893.22;5081970;28;20205;-72
2022/06/16 09:25:48;;;;;;;3.45;2.80;;;;;;;25.53;49.78;100897.13;5059997;28;20202;-72
2022/06/16 09:28:18;;;;;;;3.75;2.83;;;;;;;25.72;49.99;100902.59;5077490;28;20201;-73
2022/06/16 09:30:46;;;;;;;6.55;3.10;;;;;;;25.80;48.45;100899.25;5078788;28;20572;-72
2022/06/16 09:33:18;;;;;;;3.08;2.45;;;;;;;25.75;49.13;100898.81;5086438;28;20217;-72
2022/06/16 09:35:50;;;;;;;4.60;2.90;;;;;;;25.93;50.71;100896.34;5078612;28;20543;-72
2022/06/16 09:38:21;;;;;;;3.88;2.80;;;;;;;25.80;48.28;100905.44;5082922;28;20214;-72
2022/06/16 09:40:54;;;;;;;5.68;3.00;;;;;;;25.74;48.46;100903.31;5084075;28;20445;-72
2022/06/16 09:43:27;;;;;;;3.22;2.83;;;;;;;25.63;48.54;100895.38;5084056;28;20222;-72
2022/06/16 09:45:57;;;;;;;3.15;2.63;;;;;;;25.65;49.48;100894.25;5080423;28;20570;-72
2022/06/16 09:48:29;;;;;;;3.60;2.70;;;;;;;25.76;47.29;100900.50;5090225;28;20202;-72
2022/06/16 09:51:02;;;;;;;3.53;2.28;;;;;;;25.99;48.09;100894.03;5079459;28;20674;-72
2022/06/16 09:53:36;;;;;;;2.40;2.10;;;;;;;26.18;48.56;100890.59;5084822;28;20234;-72
2022/06/16 09:56:08;;;;;;;2.22;2.03;;;;;;;26.29;44.72;100895.00;5082222;28;20194;-72
2022/06/16 09:58:41;;;;;;;3.22;2.35;;;;;;;26.40;46.93;100891.38;5085706;28;20224;-73
2022/06/16 10:01:11;;;;;;;3.35;1.90;;;;;;;26.56;46.68;100902.41;5086396;28;20206;-72
2022/06/16 10:03:53;;;;;;;3.05;2.50;;;;;;;26.72;46.41;100898.34;5088628;28;20753;-72
2022/06/16 10:06:28;;;;;;;3.55;2.45;;;;;;;26.49;42.86;100903.06;5078244;28;20194;-72
2022/06/16 10:09:07;;;;;;;5.70;2.50;;;;;;;26.30;45.31;100886.00;5079338;28;20563;-72
2022/06/16 10:11:44;;;;;;;2.78;2.33;;;;;;;26.30;46.06;100887.84;5080161;28;20201;-72
2022/06/16 10:14:19;;;;;;;2.20;2.00;;;;;;;26.37;43.80;100892.50;5083482;28;20286;-72
2022/06/16 10:16:54;;;;;;;3.58;2.13;;;;;;;26.33;43.57;100901.78;5071378;28;20703;-72
2022/06/16 10:19:23;;;;;;;4.88;2.40;;;;;;;25.90;42.12;100908.16;5079867;28;20283;-72
2022/06/16 10:21:49;;;;;;;2.85;2.40;;;;;;;25.66;43.08;100905.78;5078187;28;20213;-72
2022/06/16 10:24:20;;;;;;;2.40;2.20;;;;;;;25.30;43.14;100918.59;5080656;28;20220;-72
2022/06/16 10:26:48;;;;;;;7.68;2.30;;;;;;;25.22;43.81;100924.53;5083493;28;20221;-72
2022/06/16 10:29:22;;;;;;;7.43;2.30;;;;;;;25.27;44.62;100917.03;5078286;28;20386;-72
2022/06/16 10:31:49;;;;;;;2.97;2.33;;;;;;;25.42;44.60;100909.56;5087590;28;20189;-73
2022/06/16 10:34:26;;;;;;;2.97;2.53;;;;;;;25.60;46.58;100917.00;5084420;28;20305;-72
2022/06/16 10:36:58;;;;;;;4.82;2.13;;;;;;;25.60;45.50;100923.16;5080378;28;20217;-73
2022/06/16 10:39:31;;;;;;;2.88;2.03;;;;;;;25.52;43.38;100930.97;5078581;28;20207;-72
2022/06/16 10:42:06;;;;;;;2.80;2.33;;;;;;;25.49;42.54;100936.59;5082872;28;20716;-72
2022/06/16 10:44:34;;;;;;;2.85;2.15;;;;;;;25.57;43.10;100935.94;5078331;28;20299;-71
2022/06/16 10:47:03;;;;;;;3.35;2.38;;;;;;;25.58;44.06;100927.78;5073828;28;20584;-72
2022/06/16 10:49:33;;;;;;;3.22;2.17;;;;;;;25.78;45.03;100923.41;5078083;28;20296;-72
2022/06/16 10:52:03;;;;;;;2.63;2.20;;;;;;;26.10;44.50;100924.31;5080366;28;20202;-72
2022/06/16 10:54:32;;;;;;;4.07;2.30;;;;;;;26.44;43.51;100938.25;5078762;28;20541;-72
2022/06/16 10:57:16;;;;;;;3.40;2.25;;;;;;;26.63;43.13;100934.78;5080637;28;20217;-73
2022/06/16 10:59:48;;;;;;;2.88;2.20;;;;;;;26.46;41.95;100941.63;5081147;28;20190;-72
2022/06/16 11:02:21;;;;;;;4.57;2.50;;;;;;;26.32;42.27;100944.66;5081479;28;20341;-72
2022/06/16 11:04:52;;;;;;;3.58;2.10;;;;;;;26.47;41.76;100950.47;5081201;28;20217;-73
2022/06/16 11:07:21;;;;;;;4.20;2.38;;;;;;;26.62;42.44;100946.47;5076142;28;20261;-72
2022/06/16 11:09:49;;;;;;;2.15;2.05;;;;;;;26.58;41.64;100945.88;5075346;28;20212;-72
2022/06/16 11:12:19;;;;;;;2.55;2.30;;;;;;;26.90;41.50;100946.69;5082970;28;20209;-72
2022/06/16 11:14:48;;;;;;;3.83;2.35;;;;;;;27.29;41.03;100939.53;5080532;28;20213;-72
2022/06/16 11:17:20;;;;;;;4.45;2.15;;;;;;;27.48;41.49;100932.50;5078278;28;20220;-72
2022/06/16 11:19:51;;;;;;;2.10;1.90;;;;;;;27.25;40.03;100940.78;5081104;28;20580;-72
2022/06/16 11:22:27;;;;;;;2.95;2.00;;;;;;;27.12;40.73;100940.22;5082895;28;20198;-73
2022/06/16 11:25:00;;;;;;;2.63;2.13;;;;;;;27.06;40.24;100936.28;5086292;28;20670;-73
2022/06/16 11:27:29;;;;;;;4.32;2.20;;;;;;;27.08;40.70;100936.97;5086932;28;20614;-72
2022/06/16 11:29:56;;;;;;;3.35;1.95;;;;;;;27.10;39.23;100935.00;5085873;28;20394;-72
2022/06/16 11:32:28;;;;;;;2.03;1.70;;;;;;;26.95;40.16;100931.91;5086524;28;20217;-72
2022/06/16 11:34:55;;;;;;;5.68;2.00;;;;;;;26.36;38.00;100938.91;5083973;28;20217;-72
2022/06/16 11:37:39;;;;;;;2.42;1.80;;;;;;;26.10;39.02;100925.16;5083352;28;20221;-72
2022/06/16 11:40:17;;;;;;;2.97;1.77;;;;;;;26.08;38.34;100940.47;5083833;28;20205;-73
2022/06/16 11:43:01;;;;;;;2.83;2.20;;;;;;;26.23;38.80;100919.59;5085859;28;20210;-72
2022/06/16 11:45:35;;;;;;;2.50;1.60;;;;;;;26.33;38.57;100923.16;5086124;28;20198;-72
2022/06/16 11:48:13;;;;;;;5.03;2.10;;;;;;;26.05;38.70;100925.56;5088439;28;20190;-72
2022/06/16 11:50:48;;;;;;;2.55;1.73;;;;;;;25.74;39.21;100930.00;5085455;28;20696;-72
2022/06/16 11:53:28;;;;;;;2.05;1.85;;;;;;;25.69;39.26;100927.72;5089512;28;20244;-72
2022/06/16 11:55:58;;;;;;;2.63;1.80;;;;;;;25.68;39.27;100931.38;5088131;28;20193;-72
2022/06/16 11:58:40;;;;;;;4.63;2.20;;;;;;;25.93;38.30;100936.41;5090040;28;20244;-72
2022/06/16 12:01:13;;;;;;;3.42;1.95;;;;;;;26.09;37.73;100930.66;5093245;28;20201;-72
2022/06/16 12:03:58;;;;;;;2.92;2.10;;;;;;;26.13;37.95;100929.41;5097307;28;20251;-72
2022/06/16 12:06:37;;;;;;;2.95;1.90;;;;;;;26.15;39.06;100920.25;5096639;28;20784;-72
2022/06/16 12:09:19;;;;;;;3.40;2.08;;;;;;;26.30;38.60;100923.41;5098991;28;20201;-72